sensor_id;sensor_type;location;lat;lon;timestamp;pressure;altitude;pressure_sealevel;temperature;humidity
65659;BME280;60181;53.258;6.932;2023-02-16T00:01:13;102361.28;;;13.13;56.63
65659;BME280;60181;53.258;6.932;2023-02-16T00:05:27;102360.08;;;13.12;56.61
65659;BME280;60181;53.258;6.932;2023-02-16T00:09:19;102360.97;;;13.12;56.55
65659;BME280;60181;53.258;6.932;2023-02-16T00:13:24;102362.39;;;13.12;56.42
65659;BME280;60181;53.258;6.932;2023-02-16T00:17:26;102363.33;;;13.13;56.40
65659;BME280;60181;53.258;6.932;2023-02-16T00:21:30;102365.15;;;13.15;56.33
65659;BME280;60181;53.258;6.932;2023-02-16T00:25:35;102365.94;;;13.14;56.65
65659;BME280;60181;53.258;6.932;2023-02-16T00:29:38;102366.05;;;13.13;56.57
65659;BME280;60181;53.258;6.932;2023-02-16T00:33:43;102366.71;;;13.13;56.52
65659;BME280;60181;53.258;6.932;2023-02-16T00:37:47;102367.24;;;13.14;56.73
65659;BME280;60181;53.258;6.932;2023-02-16T00:41:51;102367.85;;;13.19;56.15
65659;BME280;60181;53.258;6.932;2023-02-16T00:45:55;102367.39;;;13.19;55.81
65659;BME280;60181;53.258;6.932;2023-02-16T00:49:59;102366.11;;;13.17;55.73
65659;BME280;60181;53.258;6.932;2023-02-16T00:54:02;102365.36;;;13.14;55.64
65659;BME280;60181;53.258;6.932;2023-02-16T00:58:24;102363.45;;;13.12;55.49
65659;BME280;60181;53.258;6.932;2023-02-16T01:02:10;102361.17;;;13.09;55.33
65659;BME280;60181;53.258;6.932;2023-02-16T01:06:14;102358.94;;;13.06;55.02
65659;BME280;60181;53.258;6.932;2023-02-16T01:10:19;102357.78;;;13.05;54.93
65659;BME280;60181;53.258;6.932;2023-02-16T01:14:22;102358.26;;;13.02;54.83
65659;BME280;60181;53.258;6.932;2023-02-16T01:18:26;102358.00;;;13.00;54.67
65659;BME280;60181;53.258;6.932;2023-02-16T01:22:30;102356.79;;;12.98;54.55
65659;BME280;60181;53.258;6.932;2023-02-16T01:26:38;102355.50;;;12.96;54.52
65659;BME280;60181;53.258;6.932;2023-02-16T01:30:38;102355.04;;;12.94;54.34
65659;BME280;60181;53.258;6.932;2023-02-16T01:34:42;102353.47;;;12.92;54.37
65659;BME280;60181;53.258;6.932;2023-02-16T01:38:46;102352.14;;;12.90;54.33
65659;BME280;60181;53.258;6.932;2023-02-16T01:42:51;102349.70;;;12.89;54.13
65659;BME280;60181;53.258;6.932;2023-02-16T01:47:10;102346.86;;;12.87;54.11
65659;BME280;60181;53.258;6.932;2023-02-16T01:51:15;102343.89;;;12.85;54.02
65659;BME280;60181;53.258;6.932;2023-02-16T01:59:18;102337.78;;;12.83;53.93
65659;BME280;60181;53.258;6.932;2023-02-16T02:03:10;102333.37;;;12.82;53.91
65659;BME280;60181;53.258;6.932;2023-02-16T02:07:20;102328.44;;;12.80;53.94
65659;BME280;60181;53.258;6.932;2023-02-16T02:11:24;102324.36;;;12.79;53.82
65659;BME280;60181;53.258;6.932;2023-02-16T02:15:23;102322.63;;;12.77;53.79
65659;BME280;60181;53.258;6.932;2023-02-16T02:19:26;102320.56;;;12.77;53.99
65659;BME280;60181;53.258;6.932;2023-02-16T02:27:48;102313.51;;;12.75;54.07
65659;BME280;60181;53.258;6.932;2023-02-16T02:43:58;102291.20;;;12.68;54.31
65659;BME280;60181;53.258;6.932;2023-02-16T02:47:55;102287.75;;;12.67;54.38
65659;BME280;60181;53.258;6.932;2023-02-16T02:51:58;102283.87;;;12.66;54.26
65659;BME280;60181;53.258;6.932;2023-02-16T02:56:02;102281.36;;;12.65;54.31
65659;BME280;60181;53.258;6.932;2023-02-16T03:00:07;102279.17;;;12.64;54.35
65659;BME280;60181;53.258;6.932;2023-02-16T03:04:10;102275.75;;;12.63;54.37
65659;BME280;60181;53.258;6.932;2023-02-16T03:08:15;102274.15;;;12.62;54.38
65659;BME280;60181;53.258;6.932;2023-02-16T03:12:18;102272.66;;;12.62;54.32
65659;BME280;60181;53.258;6.932;2023-02-16T03:16:26;102270.48;;;12.60;54.37
65659;BME280;60181;53.258;6.932;2023-02-16T03:20:26;102268.79;;;12.59;54.44
65659;BME280;60181;53.258;6.932;2023-02-16T03:24:30;102266.94;;;12.59;54.34
65659;BME280;60181;53.258;6.932;2023-02-16T03:28:35;102263.39;;;12.58;54.44
65659;BME280;60181;53.258;6.932;2023-02-16T03:32:38;102259.33;;;12.57;54.43
65659;BME280;60181;53.258;6.932;2023-02-16T03:36:44;102255.75;;;12.57;54.51
65659;BME280;60181;53.258;6.932;2023-02-16T03:40:46;102253.28;;;12.57;54.49
65659;BME280;60181;53.258;6.932;2023-02-16T03:44:50;102250.73;;;12.56;54.58
65659;BME280;60181;53.258;6.932;2023-02-16T03:48:54;102249.83;;;12.57;54.46
65659;BME280;60181;53.258;6.932;2023-02-16T03:52:58;102248.88;;;12.57;54.51
65659;BME280;60181;53.258;6.932;2023-02-16T03:57:02;102246.80;;;12.57;54.63
65659;BME280;60181;53.258;6.932;2023-02-16T04:01:06;102245.81;;;12.57;54.74
65659;BME280;60181;53.258;6.932;2023-02-16T04:05:10;102244.90;;;12.57;54.78
65659;BME280;60181;53.258;6.932;2023-02-16T04:09:14;102242.97;;;12.58;54.76
65659;BME280;60181;53.258;6.932;2023-02-16T04:13:18;102240.55;;;12.58;54.81
65659;BME280;60181;53.258;6.932;2023-02-16T04:17:22;102238.67;;;12.59;54.88
65659;BME280;60181;53.258;6.932;2023-02-16T04:21:26;102236.86;;;12.59;55.03
65659;BME280;60181;53.258;6.932;2023-02-16T04:25:30;102235.75;;;12.59;54.94
65659;BME280;60181;53.258;6.932;2023-02-16T04:29:34;102236.50;;;12.60;55.13
65659;BME280;60181;53.258;6.932;2023-02-16T04:33:38;102236.33;;;12.60;55.19
65659;BME280;60181;53.258;6.932;2023-02-16T04:37:42;102233.94;;;12.59;55.22
65659;BME280;60181;53.258;6.932;2023-02-16T04:41:46;102232.62;;;12.59;55.25
65659;BME280;60181;53.258;6.932;2023-02-16T04:45:50;102230.24;;;12.60;55.24
65659;BME280;60181;53.258;6.932;2023-02-16T04:49:54;102225.51;;;12.59;55.39
65659;BME280;60181;53.258;6.932;2023-02-16T04:53:58;102220.90;;;12.58;55.42
65659;BME280;60181;53.258;6.932;2023-02-16T04:58:02;102219.17;;;12.58;55.46
65659;BME280;60181;53.258;6.932;2023-02-16T05:02:06;102220.33;;;12.59;55.49
65659;BME280;60181;53.258;6.932;2023-02-16T05:06:10;102222.06;;;12.59;55.60
65659;BME280;60181;53.258;6.932;2023-02-16T05:10:14;102221.90;;;12.59;55.74
65659;BME280;60181;53.258;6.932;2023-02-16T05:14:27;102221.31;;;12.59;55.76
65659;BME280;60181;53.258;6.932;2023-02-16T05:18:22;102220.25;;;12.59;55.84
65659;BME280;60181;53.258;6.932;2023-02-16T05:22:26;102218.66;;;12.60;55.86
65659;BME280;60181;53.258;6.932;2023-02-16T05:26:32;102216.89;;;12.61;55.88
65659;BME280;60181;53.258;6.932;2023-02-16T05:30:34;102217.27;;;12.64;55.97
65659;BME280;60181;53.258;6.932;2023-02-16T05:34:38;102216.42;;;12.66;56.21
65659;BME280;60181;53.258;6.932;2023-02-16T05:38:42;102216.51;;;12.67;56.34
65659;BME280;60181;53.258;6.932;2023-02-16T05:42:46;102217.47;;;12.69;56.37
65659;BME280;60181;53.258;6.932;2023-02-16T05:46:50;102219.31;;;12.70;56.60
65659;BME280;60181;53.258;6.932;2023-02-16T05:50:54;102220.59;;;12.69;56.75
65659;BME280;60181;53.258;6.932;2023-02-16T05:54:58;102221.41;;;12.68;56.80
65659;BME280;60181;53.258;6.932;2023-02-16T05:59:02;102221.90;;;12.68;56.75
65659;BME280;60181;53.258;6.932;2023-02-16T06:03:06;102221.20;;;12.68;56.80
65659;BME280;60181;53.258;6.932;2023-02-16T06:07:10;102219.72;;;12.68;56.74
65659;BME280;60181;53.258;6.932;2023-02-16T06:11:14;102217.54;;;12.68;56.76
65659;BME280;60181;53.258;6.932;2023-02-16T06:15:18;102214.42;;;12.68;56.84
65659;BME280;60181;53.258;6.932;2023-02-16T06:19:22;102213.55;;;12.68;56.92
65659;BME280;60181;53.258;6.932;2023-02-16T06:23:26;102211.74;;;12.67;56.92
65659;BME280;60181;53.258;6.932;2023-02-16T06:27:30;102210.13;;;12.66;56.91
65659;BME280;60181;53.258;6.932;2023-02-16T06:31:34;102207.09;;;12.67;56.81
65659;BME280;60181;53.258;6.932;2023-02-16T06:35:38;102204.35;;;12.67;56.83
65659;BME280;60181;53.258;6.932;2023-02-16T06:39:42;102202.73;;;12.66;56.85
65659;BME280;60181;53.258;6.932;2023-02-16T06:43:46;102203.31;;;12.66;57.48
65659;BME280;60181;53.258;6.932;2023-02-16T06:47:50;102205.00;;;12.70;56.80
65659;BME280;60181;53.258;6.932;2023-02-16T06:51:54;102206.33;;;12.70;57.16
65659;BME280;60181;53.258;6.932;2023-02-16T06:55:58;102208.96;;;12.70;57.25
65659;BME280;60181;53.258;6.932;2023-02-16T07:00:03;102210.99;;;12.71;57.12
65659;BME280;60181;53.258;6.932;2023-02-16T07:04:06;102212.00;;;12.79;57.13
65659;BME280;60181;53.258;6.932;2023-02-16T07:08:10;102211.39;;;12.89;56.77
65659;BME280;60181;53.258;6.932;2023-02-16T07:12:14;102209.97;;;12.96;57.11
65659;BME280;60181;53.258;6.932;2023-02-16T07:16:18;102209.90;;;13.01;57.45
65659;BME280;60181;53.258;6.932;2023-02-16T07:20:22;102212.05;;;13.03;57.59
65659;BME280;60181;53.258;6.932;2023-02-16T07:24:26;102216.25;;;13.05;57.79
65659;BME280;60181;53.258;6.932;2023-02-16T07:28:30;102219.34;;;13.06;57.89
65659;BME280;60181;53.258;6.932;2023-02-16T07:32:34;102221.56;;;13.07;57.97
65659;BME280;60181;53.258;6.932;2023-02-16T07:36:38;102223.50;;;13.08;58.12
65659;BME280;60181;53.258;6.932;2023-02-16T07:40:42;102225.19;;;13.08;58.18
65659;BME280;60181;53.258;6.932;2023-02-16T07:44:46;102227.08;;;13.09;58.29
65659;BME280;60181;53.258;6.932;2023-02-16T07:48:50;102229.63;;;13.09;58.38
65659;BME280;60181;53.258;6.932;2023-02-16T07:52:54;102231.61;;;13.09;58.46
65659;BME280;60181;53.258;6.932;2023-02-16T07:56:58;102233.04;;;13.10;58.53
65659;BME280;60181;53.258;6.932;2023-02-16T08:01:06;102235.35;;;13.10;58.71
65659;BME280;60181;53.258;6.932;2023-02-16T08:05:06;102237.90;;;13.10;58.78
65659;BME280;60181;53.258;6.932;2023-02-16T08:09:10;102241.11;;;13.10;58.98
65659;BME280;60181;53.258;6.932;2023-02-16T08:13:14;102244.60;;;13.11;59.04
65659;BME280;60181;53.258;6.932;2023-02-16T08:17:18;102246.83;;;13.11;59.26
65659;BME280;60181;53.258;6.932;2023-02-16T08:21:23;102248.32;;;13.13;59.34
65659;BME280;60181;53.258;6.932;2023-02-16T08:25:26;102248.79;;;13.19;58.50
65659;BME280;60181;53.258;6.932;2023-02-16T08:29:30;102247.41;;;13.24;58.25
65659;BME280;60181;53.258;6.932;2023-02-16T08:33:34;102248.08;;;13.32;60.84
65659;BME280;60181;53.258;6.932;2023-02-16T08:37:38;102248.14;;;13.38;59.94
65659;BME280;60181;53.258;6.932;2023-02-16T08:41:42;102249.95;;;13.41;59.61
65659;BME280;60181;53.258;6.932;2023-02-16T08:45:46;102251.64;;;13.43;59.81
65659;BME280;60181;53.258;6.932;2023-02-16T08:49:50;102253.70;;;13.44;59.78
65659;BME280;60181;53.258;6.932;2023-02-16T08:53:54;102254.74;;;13.45;59.76
65659;BME280;60181;53.258;6.932;2023-02-16T08:57:58;102254.37;;;13.47;59.76
65659;BME280;60181;53.258;6.932;2023-02-16T09:02:02;102254.74;;;13.48;59.68
65659;BME280;60181;53.258;6.932;2023-02-16T09:06:06;102256.52;;;13.49;59.69
65659;BME280;60181;53.258;6.932;2023-02-16T09:10:10;102258.20;;;13.50;59.69
65659;BME280;60181;53.258;6.932;2023-02-16T09:14:14;102258.65;;;13.51;59.62
65659;BME280;60181;53.258;6.932;2023-02-16T09:18:18;102260.43;;;13.52;59.63
65659;BME280;60181;53.258;6.932;2023-02-16T09:22:22;102259.81;;;13.54;59.65
65659;BME280;60181;53.258;6.932;2023-02-16T09:26:26;102258.95;;;13.55;59.63
65659;BME280;60181;53.258;6.932;2023-02-16T09:30:30;102258.54;;;13.56;59.64
65659;BME280;60181;53.258;6.932;2023-02-16T09:34:34;102257.76;;;13.58;59.56
65659;BME280;60181;53.258;6.932;2023-02-16T09:38:38;102259.00;;;13.60;59.59
65659;BME280;60181;53.258;6.932;2023-02-16T09:42:57;102259.33;;;13.62;59.61
65659;BME280;60181;53.258;6.932;2023-02-16T09:46:46;102259.42;;;13.64;59.59
65659;BME280;60181;53.258;6.932;2023-02-16T09:50:50;102261.06;;;13.66;59.67
65659;BME280;60181;53.258;6.932;2023-02-16T09:54:54;102263.90;;;13.68;59.71
65659;BME280;60181;53.258;6.932;2023-02-16T09:59:07;102266.60;;;13.69;59.69
65659;BME280;60181;53.258;6.932;2023-02-16T10:11:16;102279.36;;;13.74;60.81
65659;BME280;60181;53.258;6.932;2023-02-16T10:15:15;102282.70;;;13.77;60.14
65659;BME280;60181;53.258;6.932;2023-02-16T10:19:25;102285.55;;;13.80;59.96
65659;BME280;60181;53.258;6.932;2023-02-16T10:23:28;102285.80;;;13.82;59.97
65659;BME280;60181;53.258;6.932;2023-02-16T10:27:27;102286.36;;;13.84;59.99
65659;BME280;60181;53.258;6.932;2023-02-16T10:31:33;102285.72;;;13.85;60.04
65659;BME280;60181;53.258;6.932;2023-02-16T10:35:46;102284.35;;;13.85;60.16
65659;BME280;60181;53.258;6.932;2023-02-16T10:43:49;102283.73;;;13.85;60.26
65659;BME280;60181;53.258;6.932;2023-02-16T10:47:46;102283.15;;;13.84;60.24
65659;BME280;60181;53.258;6.932;2023-02-16T10:51:50;102282.09;;;13.85;60.24
65659;BME280;60181;53.258;6.932;2023-02-16T10:55:54;102280.36;;;13.85;60.21
65659;BME280;60181;53.258;6.932;2023-02-16T10:59:58;102281.10;;;13.86;60.49
65659;BME280;60181;53.258;6.932;2023-02-16T11:04:02;102285.97;;;13.89;60.69
65659;BME280;60181;53.258;6.932;2023-02-16T11:08:06;102290.70;;;13.90;60.62
65659;BME280;60181;53.258;6.932;2023-02-16T11:12:19;102293.71;;;13.89;60.63
65659;BME280;60181;53.258;6.932;2023-02-16T11:16:20;102297.75;;;13.89;60.64
65659;BME280;60181;53.258;6.932;2023-02-16T11:20:34;102302.19;;;13.89;60.68
65659;BME280;60181;53.258;6.932;2023-02-16T11:24:23;102304.21;;;13.88;60.69
65659;BME280;60181;53.258;6.932;2023-02-16T11:28:27;102305.11;;;13.88;60.62
65659;BME280;60181;53.258;6.932;2023-02-16T11:32:30;102305.52;;;13.87;60.69
65659;BME280;60181;53.258;6.932;2023-02-16T11:36:40;102305.31;;;13.86;60.71
65659;BME280;60181;53.258;6.932;2023-02-16T11:40:37;102304.61;;;13.85;60.70
65659;BME280;60181;53.258;6.932;2023-02-16T11:44:42;102301.45;;;13.85;60.65
65659;BME280;60181;53.258;6.932;2023-02-16T11:48:46;102297.41;;;13.85;60.59
65659;BME280;60181;53.258;6.932;2023-02-16T11:52:51;102292.64;;;13.85;60.60
65659;BME280;60181;53.258;6.932;2023-02-16T11:57:00;102289.34;;;13.85;60.59
65659;BME280;60181;53.258;6.932;2023-02-16T12:05:15;102281.60;;;13.85;60.59
65659;BME280;60181;53.258;6.932;2023-02-16T12:13:21;102268.17;;;13.87;60.48
65659;BME280;60181;53.258;6.932;2023-02-16T12:25:38;102243.87;;;13.89;60.46
65659;BME280;60181;53.258;6.932;2023-02-16T12:37:44;102226.82;;;13.93;60.50
65659;BME280;60181;53.258;6.932;2023-02-16T12:45:42;102222.91;;;13.95;60.57
65659;BME280;60181;53.258;6.932;2023-02-16T12:49:52;102221.92;;;13.95;60.59
65659;BME280;60181;53.258;6.932;2023-02-16T12:54:00;102221.14;;;13.96;60.62
65659;BME280;60181;53.258;6.932;2023-02-16T12:57:58;102219.57;;;13.98;60.45
65659;BME280;60181;53.258;6.932;2023-02-16T13:01:58;102217.35;;;14.00;60.49
65659;BME280;60181;53.258;6.932;2023-02-16T13:10:11;102212.94;;;14.04;60.42
65659;BME280;60181;53.258;6.932;2023-02-16T13:14:10;102210.13;;;14.05;60.40
65659;BME280;60181;53.258;6.932;2023-02-16T13:22:38;102201.60;;;14.09;60.39
65659;BME280;60181;53.258;6.932;2023-02-16T13:26:31;102196.08;;;14.11;60.41
65659;BME280;60181;53.258;6.932;2023-02-16T13:30:43;102189.94;;;14.12;60.39
65659;BME280;60181;53.258;6.932;2023-02-16T13:46:42;102167.36;;;14.13;60.53
65659;BME280;60181;53.258;6.932;2023-02-16T13:50:45;102160.36;;;14.12;60.58
65659;BME280;60181;53.258;6.932;2023-02-16T13:54:49;102153.93;;;14.12;60.58
65659;BME280;60181;53.258;6.932;2023-02-16T13:58:54;102148.08;;;14.13;60.58
65659;BME280;60181;53.258;6.932;2023-02-16T14:02:58;102143.83;;;14.30;61.14
65659;BME280;60181;53.258;6.932;2023-02-16T14:11:06;102132.54;;;14.50;62.12
65659;BME280;60181;53.258;6.932;2023-02-16T14:15:16;102126.95;;;14.49;62.52
65659;BME280;60181;53.258;6.932;2023-02-16T14:19:23;102122.75;;;14.46;62.53
65659;BME280;60181;53.258;6.932;2023-02-16T14:23:26;102116.92;;;14.42;62.47
65659;BME280;60181;53.258;6.932;2023-02-16T14:27:44;102112.77;;;14.38;62.26
65659;BME280;60181;53.258;6.932;2023-02-16T14:31:25;102109.31;;;14.35;62.03
65659;BME280;60181;53.258;6.932;2023-02-16T14:35:33;102106.11;;;14.33;61.93
65659;BME280;60181;53.258;6.932;2023-02-16T14:39:33;102102.98;;;14.31;61.93
65659;BME280;60181;53.258;6.932;2023-02-16T14:43:41;102100.35;;;14.29;61.98
65659;BME280;60181;53.258;6.932;2023-02-16T14:51:50;102097.33;;;14.25;61.93
65659;BME280;60181;53.258;6.932;2023-02-16T14:55:59;102095.97;;;14.23;61.96
65659;BME280;60181;53.258;6.932;2023-02-16T15:03:57;102095.53;;;14.21;61.87
65659;BME280;60181;53.258;6.932;2023-02-16T15:12:10;102095.81;;;14.19;62.05
65659;BME280;60181;53.258;6.932;2023-02-16T15:16:09;102096.27;;;14.18;61.99
65659;BME280;60181;53.258;6.932;2023-02-16T15:24:21;102096.86;;;14.16;61.94
65659;BME280;60181;53.258;6.932;2023-02-16T15:28:22;102095.67;;;14.15;61.91
65659;BME280;60181;53.258;6.932;2023-02-16T15:32:25;102092.33;;;14.13;62.01
65659;BME280;60181;53.258;6.932;2023-02-16T15:36:33;102089.58;;;14.13;61.95
65659;BME280;60181;53.258;6.932;2023-02-16T15:40:34;102086.58;;;14.12;61.90
65659;BME280;60181;53.258;6.932;2023-02-16T15:44:37;102085.66;;;14.11;61.99
65659;BME280;60181;53.258;6.932;2023-02-16T15:48:41;102083.08;;;14.10;61.98
65659;BME280;60181;53.258;6.932;2023-02-16T15:52:45;102080.90;;;14.10;61.95
65659;BME280;60181;53.258;6.932;2023-02-16T15:56:50;102079.19;;;14.15;62.58
65659;BME280;60181;53.258;6.932;2023-02-16T16:00:53;102077.59;;;14.22;62.01
65659;BME280;60181;53.258;6.932;2023-02-16T16:04:58;102075.94;;;14.24;62.74
65659;BME280;60181;53.258;6.932;2023-02-16T16:09:01;102073.85;;;14.23;62.84
65659;BME280;60181;53.258;6.932;2023-02-16T16:13:06;102071.33;;;14.21;62.74
65659;BME280;60181;53.258;6.932;2023-02-16T16:17:11;102068.74;;;14.20;62.53
65659;BME280;60181;53.258;6.932;2023-02-16T16:21:16;102064.50;;;14.19;62.58
65659;BME280;60181;53.258;6.932;2023-02-16T16:25:36;102059.66;;;14.17;62.59
65659;BME280;60181;53.258;6.932;2023-02-16T16:29:40;102053.68;;;14.16;62.71
65659;BME280;60181;53.258;6.932;2023-02-16T16:33:25;102047.55;;;14.15;62.55
65659;BME280;60181;53.258;6.932;2023-02-16T16:37:30;102041.66;;;14.14;62.94
65659;BME280;60181;53.258;6.932;2023-02-16T16:41:33;102036.50;;;14.15;62.68
65659;BME280;60181;53.258;6.932;2023-02-16T16:45:38;102031.07;;;14.15;62.47
65659;BME280;60181;53.258;6.932;2023-02-16T16:49:45;102023.33;;;14.15;62.53
65659;BME280;60181;53.258;6.932;2023-02-16T16:53:55;102019.00;;;14.14;62.55
65659;BME280;60181;53.258;6.932;2023-02-16T16:57:50;102016.36;;;14.13;62.55
65659;BME280;60181;53.258;6.932;2023-02-16T17:01:53;102013.70;;;14.13;62.53
65659;BME280;60181;53.258;6.932;2023-02-16T17:05:57;102009.25;;;14.12;62.56
65659;BME280;60181;53.258;6.932;2023-02-16T17:10:01;102004.80;;;14.12;62.54
65659;BME280;60181;53.258;6.932;2023-02-16T17:14:09;102003.44;;;14.11;62.53
65659;BME280;60181;53.258;6.932;2023-02-16T17:18:13;102001.54;;;14.11;62.53
65659;BME280;60181;53.258;6.932;2023-02-16T17:22:17;102000.03;;;14.11;62.53
65659;BME280;60181;53.258;6.932;2023-02-16T17:26:17;101999.28;;;14.10;62.57
65659;BME280;60181;53.258;6.932;2023-02-16T17:30:21;101998.05;;;14.10;62.57
65659;BME280;60181;53.258;6.932;2023-02-16T17:34:25;101995.87;;;14.10;62.58
65659;BME280;60181;53.258;6.932;2023-02-16T17:38:29;101992.25;;;14.10;62.56
65659;BME280;60181;53.258;6.932;2023-02-16T17:42:33;101988.54;;;14.09;62.56
65659;BME280;60181;53.258;6.932;2023-02-16T17:46:37;101985.66;;;14.09;62.58
65659;BME280;60181;53.258;6.932;2023-02-16T17:50:41;101982.53;;;14.09;62.56
65659;BME280;60181;53.258;6.932;2023-02-16T17:54:45;101978.23;;;14.09;62.55
65659;BME280;60181;53.258;6.932;2023-02-16T17:58:49;101973.88;;;14.09;62.53
65659;BME280;60181;53.258;6.932;2023-02-16T18:02:53;101970.49;;;14.09;62.53
65659;BME280;60181;53.258;6.932;2023-02-16T18:06:57;101967.94;;;14.09;62.54
65659;BME280;60181;53.258;6.932;2023-02-16T18:11:01;101963.82;;;14.09;62.53
65659;BME280;60181;53.258;6.932;2023-02-16T18:15:05;101960.55;;;14.13;62.71
65659;BME280;60181;53.258;6.932;2023-02-16T18:19:12;101959.20;;;14.17;62.45
65659;BME280;60181;53.258;6.932;2023-02-16T18:23:13;101958.78;;;14.19;62.67
65659;BME280;60181;53.258;6.932;2023-02-16T18:27:17;101957.79;;;14.19;62.93
65659;BME280;60181;53.258;6.932;2023-02-16T18:31:21;101956.39;;;14.19;63.04
65659;BME280;60181;53.258;6.932;2023-02-16T18:35:25;101954.55;;;14.18;63.08
65659;BME280;60181;53.258;6.932;2023-02-16T18:39:29;101951.08;;;14.18;63.07
65659;BME280;60181;53.258;6.932;2023-02-16T18:43:33;101946.26;;;14.17;63.07
65659;BME280;60181;53.258;6.932;2023-02-16T18:47:37;101942.89;;;14.17;63.09
65659;BME280;60181;53.258;6.932;2023-02-16T18:51:41;101937.92;;;14.16;63.07
65659;BME280;60181;53.258;6.932;2023-02-16T18:55:45;101933.22;;;14.16;63.07
65659;BME280;60181;53.258;6.932;2023-02-16T18:59:49;101928.19;;;14.16;63.04
65659;BME280;60181;53.258;6.932;2023-02-16T19:03:53;101924.40;;;14.16;63.02
65659;BME280;60181;53.258;6.932;2023-02-16T19:07:57;101921.51;;;14.16;63.05
65659;BME280;60181;53.258;6.932;2023-02-16T19:12:01;101920.20;;;14.16;62.99
65659;BME280;60181;53.258;6.932;2023-02-16T19:16:05;101918.87;;;14.16;63.04
65659;BME280;60181;53.258;6.932;2023-02-16T19:20:09;101916.41;;;14.16;63.02
65659;BME280;60181;53.258;6.932;2023-02-16T19:24:13;101912.53;;;14.15;63.01
65659;BME280;60181;53.258;6.932;2023-02-16T19:28:17;101908.42;;;14.15;63.01
65659;BME280;60181;53.258;6.932;2023-02-16T19:32:21;101905.94;;;14.15;63.01
65659;BME280;60181;53.258;6.932;2023-02-16T19:36:25;101904.96;;;14.15;63.02
65659;BME280;60181;53.258;6.932;2023-02-16T19:40:29;101904.83;;;14.15;63.00
65659;BME280;60181;53.258;6.932;2023-02-16T19:44:33;101905.50;;;14.15;63.01
65659;BME280;60181;53.258;6.932;2023-02-16T19:48:37;101906.36;;;14.16;63.46
65659;BME280;60181;53.258;6.932;2023-02-16T19:52:41;101906.42;;;14.18;63.16
65659;BME280;60181;53.258;6.932;2023-02-16T19:56:45;101907.03;;;14.19;63.15
65659;BME280;60181;53.258;6.932;2023-02-16T20:00:49;101906.87;;;14.19;63.25
65659;BME280;60181;53.258;6.932;2023-02-16T20:04:53;101905.47;;;14.19;63.32
65659;BME280;60181;53.258;6.932;2023-02-16T20:08:57;101903.38;;;14.18;63.33
65659;BME280;60181;53.258;6.932;2023-02-16T20:13:01;101902.80;;;14.18;63.30
65659;BME280;60181;53.258;6.932;2023-02-16T20:17:05;101901.31;;;14.18;63.28
65659;BME280;60181;53.258;6.932;2023-02-16T20:21:13;101896.91;;;14.17;63.23
65659;BME280;60181;53.258;6.932;2023-02-16T20:25:13;101890.90;;;14.17;63.22
65659;BME280;60181;53.258;6.932;2023-02-16T20:29:17;101887.36;;;14.17;63.20
65659;BME280;60181;53.258;6.932;2023-02-16T20:33:21;101883.18;;;14.18;63.23
65659;BME280;60181;53.258;6.932;2023-02-16T20:37:25;101878.49;;;14.18;63.21
65659;BME280;60181;53.258;6.932;2023-02-16T20:41:29;101873.05;;;14.18;63.20
65659;BME280;60181;53.258;6.932;2023-02-16T20:45:33;101868.06;;;14.19;63.17
65659;BME280;60181;53.258;6.932;2023-02-16T20:49:37;101864.76;;;14.19;63.18
65659;BME280;60181;53.258;6.932;2023-02-16T21:05:53;101853.55;;;14.31;62.84
65659;BME280;60181;53.258;6.932;2023-02-16T21:09:57;101853.55;;;14.31;63.25
65659;BME280;60181;53.258;6.932;2023-02-16T21:14:01;101853.39;;;14.30;63.41
65659;BME280;60181;53.258;6.932;2023-02-16T21:18:05;101851.95;;;14.29;63.43
65659;BME280;60181;53.258;6.932;2023-02-16T21:22:09;101850.69;;;14.28;63.45
65659;BME280;60181;53.258;6.932;2023-02-16T21:26:13;101847.64;;;14.28;63.45
65659;BME280;60181;53.258;6.932;2023-02-16T21:30:17;101843.24;;;14.27;63.39
65659;BME280;60181;53.258;6.932;2023-02-16T21:34:21;101839.61;;;14.27;63.39
65659;BME280;60181;53.258;6.932;2023-02-16T21:38:25;101836.74;;;14.27;63.39
65659;BME280;60181;53.258;6.932;2023-02-16T21:42:29;101833.67;;;14.26;63.37
65659;BME280;60181;53.258;6.932;2023-02-16T21:46:37;101832.58;;;14.26;63.38
65659;BME280;60181;53.258;6.932;2023-02-16T21:50:38;101831.42;;;14.26;63.37
65659;BME280;60181;53.258;6.932;2023-02-16T21:54:41;101830.52;;;14.26;63.38
65659;BME280;60181;53.258;6.932;2023-02-16T21:58:45;101830.41;;;14.28;63.56
65659;BME280;60181;53.258;6.932;2023-02-16T22:02:49;101832.48;;;14.32;63.29
65659;BME280;60181;53.258;6.932;2023-02-16T22:06:53;101835.14;;;14.29;64.14
65659;BME280;60181;53.258;6.932;2023-02-16T22:11:03;101836.69;;;14.26;64.58
65659;BME280;60181;53.258;6.932;2023-02-16T22:15:01;101836.27;;;14.22;64.86
65659;BME280;60181;53.258;6.932;2023-02-16T22:19:06;101835.92;;;14.19;65.06
65659;BME280;60181;53.258;6.932;2023-02-16T22:23:09;101832.45;;;14.15;65.28
65659;BME280;60181;53.258;6.932;2023-02-16T22:27:13;101828.31;;;14.12;65.36
65659;BME280;60181;53.258;6.932;2023-02-16T22:31:17;101825.44;;;14.10;65.46
65659;BME280;60181;53.258;6.932;2023-02-16T22:35:21;101822.19;;;14.09;65.42
65659;BME280;60181;53.258;6.932;2023-02-16T22:39:25;101819.86;;;14.08;65.45
65659;BME280;60181;53.258;6.932;2023-02-16T22:43:29;101818.02;;;14.07;65.75
65659;BME280;60181;53.258;6.932;2023-02-16T22:47:33;101813.83;;;14.05;65.97
65659;BME280;60181;53.258;6.932;2023-02-16T22:51:37;101810.91;;;14.04;65.98
65659;BME280;60181;53.258;6.932;2023-02-16T22:55:40;101808.65;;;14.03;66.04
65659;BME280;60181;53.258;6.932;2023-02-16T22:59:44;101807.25;;;14.02;66.10
65659;BME280;60181;53.258;6.932;2023-02-16T23:03:49;101805.49;;;14.01;66.17
65659;BME280;60181;53.258;6.932;2023-02-16T23:07:52;101803.73;;;14.01;66.28